Impacts TAF Board
For situational awareness. Not to be used for flight planning purposes.
IDs:

KCVG - Cincinnati Intl, KY, US

Issued at 1501 UTC 01 Mar 2021
Updated at 1731 UTC 01 Mar 2021
Potential Impact None Slight Moderate High
Time1652Z 01/18Z 01/19Z 01/20Z 01/21Z 01/22Z 01/23Z 02/00Z 02/01Z 02/02Z 02/03Z 02/04Z 02/05Z 02/06Z>>
Type OBS PRVL PRVL PRVL PRVL PRVL PRVL PRVL PRVL PRVL PRVL PRVL PRVL PRVL
VIS 10 >6 >6 >6 >6 >6 >6 >6 >6 >6 >6 >6 >6 >6
CIG 250 250 -- -- -- -- -- -- -- -- -- -- -- --
Cover BKN BKN SCT SCT SCT SCT SCT SKC SKC SKC SKC SKC SKC SKC
FltCat VFR VFR VFR VFR VFR VFR VFR VFR VFR VFR VFR VFR VFR VFR
WX -- -- -- -- -- -- -- -- -- -- -- -- -- --
WDir 310 300 310 310 310 310 310 340 340 340 340 340 340 30
WSpd 13 12 14 14 14 14 14 8 8 8 8 8 8 4
WGst -- -- 22 22 22 22 22 -- -- -- -- -- -- --
Raw TAF
KCVG 011501Z 0115/0218 30012KT P6SM SCT018 BKN250
  FM011900 31014G22KT P6SM SCT250
  FM020000 34008KT P6SM SKC
  FM020600 03004KT P6SM SKC
  FM021500 15004KT P6SM SKC


Raw METAR
KCVG 011652Z 31013KT 10SM BKN250 04/M02 A3013 RMK AO2 SLP203 T00441022
KCVG 011552Z 28009KT 10SM FEW019 BKN240 04/M01 A3010 RMK AO2 SLP194 T00441006
KCVG 011452Z 28010KT 9SM FEW015 BKN250 03/M01 A3012 RMK AO2 SLP199 T00281011 51033

METAR Board
Radar Display
Forecast Discussion
For situational awareness. Not to be used for flight planning purposes.